Time;durP1;ratioP1;P1;durP2;ratioP2;P2;SDS_P1;SDS_P2;PMS_P1;PMS_P2;Temp;Humidity;BMP_temperature;BMP_pressure;BME280_temperature;BME280_humidity;BME280_pressure;Samples;Min_cycle;Max_cycle;Signal;HPM_P1;HPM_P2
2021/05/17 00:00:47;;;;;;;148.73;78.28;;;;;;;;;;5086471;28;20024;-60
2021/05/17 00:03:14;;;;;;;145.25;76.78;;;;;;;;;;5226378;22;20078;-58
2021/05/17 00:05:41;;;;;;;138.27;77.40;;;;;;;;;;5023301;28;20022;-58
2021/05/17 00:08:08;;;;;;;138.63;74.68;;;;;;;;;;5025470;28;20025;-60
2021/05/17 00:10:36;;;;;;;127.68;71.40;;;;;;;;;;5019926;28;20037;-59
2021/05/17 00:13:03;;;;;;;133.45;70.30;;;;;;;;;;5020289;28;20037;-59
2021/05/17 00:15:31;;;;;;;128.32;70.88;;;;;;;;;;5029981;28;20057;-59
2021/05/17 00:17:58;;;;;;;124.68;69.88;;;;;;;;;;5026284;28;20029;-59
2021/05/17 00:20:26;;;;;;;131.98;70.53;;;;;;;;;;5023328;28;20176;-58
2021/05/17 00:22:54;;;;;;;122.45;67.88;;;;;;;;;;5027652;28;20132;-59
2021/05/17 00:25:25;;;;;;;131.57;68.85;;;;;;;;;;5024754;28;20013;-58
2021/05/17 00:27:52;;;;;;;129.77;72.40;;;;;;;;;;5022598;28;20370;-59
2021/05/17 00:30:21;;;;;;;129.77;70.82;;;;;;;;;;5030313;28;20041;-60
2021/05/17 00:32:48;;;;;;;115.78;66.88;;;;;;;;;;5012037;28;20035;-59
2021/05/17 00:35:16;;;;;;;120.25;68.47;;;;;;;;;;5018779;28;20073;-59
2021/05/17 00:37:43;;;;;;;127.93;68.07;;;;;;;;;;5025395;28;20029;-60
2021/05/17 00:40:11;;;;;;;121.40;66.15;;;;;;;;;;5015830;28;20030;-60
2021/05/17 00:42:39;;;;;;;123.85;63.92;;;;;;;;;;5027743;28;20061;-59
2021/05/17 00:45:07;;;;;;;108.38;62.35;;;;;;;;;;5020368;28;20088;-59
2021/05/17 00:47:39;;;;;;;109.80;61.05;;;;;;;;;;5025999;28;20022;-59
2021/05/17 00:50:07;;;;;;;124.95;65.22;;;;;;;;;;5027066;28;20022;-60
2021/05/17 00:52:34;;;;;;;120.97;63.42;;;;;;;;;;5026932;28;20366;-58
2021/05/17 00:55:02;;;;;;;112.28;62.90;;;;;;;;;;5030173;28;20025;-59
2021/05/17 00:57:29;;;;;;;116.05;63.13;;;;;;;;;;5027178;28;20354;-57
2021/05/17 00:59:56;;;;;;;111.72;64.05;;;;;;;;;;5032683;28;20025;-62
2021/05/17 01:02:23;;;;;;;107.10;60.55;;;;;;;;;;5027492;28;20025;-60
2021/05/17 01:04:50;;;;;;;117.28;61.65;;;;;;;;;;5030520;28;20057;-60
2021/05/17 01:07:20;;;;;;;117.75;63.15;;;;;;;;;;5034246;28;20452;-61
2021/05/17 01:09:48;;;;;;;114.10;61.95;;;;;;;;;;5028576;28;20125;-61
2021/05/17 01:12:16;;;;;;;116.32;62.65;;;;;;;;;;5029171;28;20033;-61
2021/05/17 01:14:44;;;;;;;110.43;62.38;;;;;;;;;;5033722;28;20424;-61
2021/05/17 01:17:14;;;;;;;106.80;59.47;;;;;;;;;;5030660;28;20021;-60
2021/05/17 01:19:46;;;;;;;109.30;60.08;;;;;;;;;;5025451;28;20029;-62
2021/05/17 01:22:22;;;;;;;109.45;61.17;;;;;;;;;;5028956;28;20052;-61
2021/05/17 01:24:50;;;;;;;103.63;58.17;;;;;;;;;;5023558;28;20026;-60
2021/05/17 01:27:17;;;;;;;106.68;60.03;;;;;;;;;;5028006;28;20092;-61
2021/05/17 01:29:44;;;;;;;108.05;60.13;;;;;;;;;;5024407;28;20033;-62
2021/05/17 01:32:12;;;;;;;109.18;60.58;;;;;;;;;;5028921;28;20022;-59
2021/05/17 01:34:39;;;;;;;111.28;59.30;;;;;;;;;;5010004;28;20024;-61
2021/05/17 01:37:09;;;;;;;101.28;58.55;;;;;;;;;;5017389;28;20021;-59
2021/05/17 01:39:37;;;;;;;107.18;57.97;;;;;;;;;;5004665;28;20026;-60
2021/05/17 01:42:04;;;;;;;102.72;58.78;;;;;;;;;;5026498;28;20029;-60
2021/05/17 01:44:38;;;;;;;102.65;58.50;;;;;;;;;;5028735;28;20083;-61
2021/05/17 01:47:05;;;;;;;99.53;56.40;;;;;;;;;;5030388;28;20420;-61
2021/05/17 01:49:33;;;;;;;99.35;58.00;;;;;;;;;;5033209;28;20163;-59
2021/05/17 01:52:01;;;;;;;99.20;57.15;;;;;;;;;;5026345;28;20469;-59
2021/05/17 01:54:32;;;;;;;92.47;54.67;;;;;;;;;;5028750;28;20029;-61
2021/05/17 01:56:59;;;;;;;98.32;54.30;;;;;;;;;;5025624;28;20029;-60
2021/05/17 01:59:31;;;;;;;101.40;54.47;;;;;;;;;;5028411;28;20038;-59
2021/05/17 02:01:59;;;;;;;95.25;54.85;;;;;;;;;;5027496;28;20346;-59
2021/05/17 02:04:26;;;;;;;94.13;53.15;;;;;;;;;;5027008;28;20045;-60
2021/05/17 02:06:54;;;;;;;89.05;53.15;;;;;;;;;;5023838;28;20021;-55
2021/05/17 02:09:26;;;;;;;89.18;51.92;;;;;;;;;;5027756;28;20531;-58
2021/05/17 02:11:54;;;;;;;90.55;50.90;;;;;;;;;;5029467;28;20459;-61
2021/05/17 02:14:23;;;;;;;86.70;50.15;;;;;;;;;;5026377;28;20056;-60
2021/05/17 02:16:50;;;;;;;86.55;47.95;;;;;;;;;;5028598;28;20025;-60
2021/05/17 02:19:27;;;;;;;88.30;48.40;;;;;;;;;;5023932;28;20084;-60
2021/05/17 02:21:54;;;;;;;82.13;47.17;;;;;;;;;;5029995;28;20030;-59
2021/05/17 02:24:21;;;;;;;83.18;47.63;;;;;;;;;;5026304;28;20030;-59
2021/05/17 02:26:48;;;;;;;85.78;48.60;;;;;;;;;;5025840;28;20568;-58
2021/05/17 02:29:16;;;;;;;77.13;45.80;;;;;;;;;;5024830;28;20513;-59
2021/05/17 02:31:43;;;;;;;80.32;47.67;;;;;;;;;;5028112;28;20052;-60
2021/05/17 02:34:11;;;;;;;77.75;45.63;;;;;;;;;;5032448;28;20044;-59
2021/05/17 02:36:38;;;;;;;81.38;47.05;;;;;;;;;;5030360;28;20017;-60
2021/05/17 02:39:06;;;;;;;79.13;46.65;;;;;;;;;;5032840;28;20532;-59
2021/05/17 02:41:33;;;;;;;78.15;43.97;;;;;;;;;;5032654;28;20492;-60
2021/05/17 02:44:00;;;;;;;76.63;43.83;;;;;;;;;;5032904;28;20029;-60
2021/05/17 02:46:28;;;;;;;70.13;43.47;;;;;;;;;;5033234;28;20056;-60
2021/05/17 02:48:55;;;;;;;77.15;43.17;;;;;;;;;;5033137;28;20022;-60
2021/05/17 02:51:22;;;;;;;71.28;42.72;;;;;;;;;;5015290;28;20492;-60
2021/05/17 02:53:52;;;;;;;67.78;41.47;;;;;;;;;;5032849;28;20028;-60
2021/05/17 02:56:26;;;;;;;71.97;42.40;;;;;;;;;;5032507;28;20067;-58
2021/05/17 02:58:54;;;;;;;70.05;40.13;;;;;;;;;;5029829;28;20025;-60
2021/05/17 03:01:28;;;;;;;71.53;40.65;;;;;;;;;;5031974;28;20021;-58
2021/05/17 03:03:57;;;;;;;67.00;39.75;;;;;;;;;;5030530;28;20053;-59
2021/05/17 03:06:37;;;;;;;70.80;40.22;;;;;;;;;;5032583;28;20416;-60
2021/05/17 03:09:08;;;;;;;68.85;39.92;;;;;;;;;;5032673;28;20080;-60
2021/05/17 03:11:42;;;;;;;64.90;39.00;;;;;;;;;;5008577;28;20021;-61
2021/05/17 03:14:10;;;;;;;64.10;39.28;;;;;;;;;;5031035;28;20022;-60
2021/05/17 03:16:38;;;;;;;63.50;39.33;;;;;;;;;;5014604;28;20045;-60
2021/05/17 03:19:07;;;;;;;62.47;36.38;;;;;;;;;;5031714;28;20409;-60
2021/05/17 03:21:34;;;;;;;64.45;38.28;;;;;;;;;;5032327;28;20029;-60
2021/05/17 03:24:02;;;;;;;61.67;35.80;;;;;;;;;;5031809;28;20037;-59
2021/05/17 03:26:31;;;;;;;62.60;36.70;;;;;;;;;;5032311;28;20104;-59
2021/05/17 03:28:58;;;;;;;59.90;35.38;;;;;;;;;;5031504;28;20021;-59
2021/05/17 03:31:25;;;;;;;58.83;33.90;;;;;;;;;;5032165;28;20427;-59
2021/05/17 03:33:52;;;;;;;56.75;34.38;;;;;;;;;;5031633;28;20052;-60
2021/05/17 03:36:19;;;;;;;59.10;34.28;;;;;;;;;;4998212;28;20029;-59
2021/05/17 03:38:46;;;;;;;55.38;34.15;;;;;;;;;;5031550;28;20032;-60
2021/05/17 03:41:13;;;;;;;55.17;34.38;;;;;;;;;;5031980;28;20087;-59
2021/05/17 03:43:40;;;;;;;57.92;33.33;;;;;;;;;;5031413;28;20052;-60
2021/05/17 03:46:07;;;;;;;59.28;33.35;;;;;;;;;;5032005;28;20068;-60
2021/05/17 03:48:43;;;;;;;51.38;32.38;;;;;;;;;;5031310;28;20018;-59
2021/05/17 03:51:11;;;;;;;50.65;33.10;;;;;;;;;;5031750;28;20543;-57
2021/05/17 03:53:39;;;;;;;55.03;32.33;;;;;;;;;;5031959;28;20024;-59
2021/05/17 03:56:07;;;;;;;52.20;31.25;;;;;;;;;;5031808;28;20028;-59
2021/05/17 03:58:34;;;;;;;49.78;30.85;;;;;;;;;;5013959;28;20029;-59
2021/05/17 04:01:01;;;;;;;53.42;31.25;;;;;;;;;;5030954;28;20032;-59
2021/05/17 04:03:28;;;;;;;51.88;29.92;;;;;;;;;;5024300;28;20060;-59
2021/05/17 04:13:54;;;;;;;46.95;28.52;;;;;;;;;;5031942;28;20037;-61
2021/05/17 04:16:21;;;;;;;41.35;27.60;;;;;;;;;;5031314;28;20468;-60
2021/05/17 04:18:49;;;;;;;45.17;28.67;;;;;;;;;;5031271;28;20454;-58
2021/05/17 04:21:16;;;;;;;46.40;28.38;;;;;;;;;;5031043;28;20045;-60
2021/05/17 04:23:43;;;;;;;46.88;27.85;;;;;;;;;;5031588;28;20042;-61
2021/05/17 04:26:10;;;;;;;41.65;26.77;;;;;;;;;;5033888;28;20045;-60
2021/05/17 04:28:37;;;;;;;45.40;26.95;;;;;;;;;;5035370;28;20017;-60
2021/05/17 04:31:04;;;;;;;42.08;26.73;;;;;;;;;;5031487;28;20032;-60
2021/05/17 04:33:31;;;;;;;39.55;26.67;;;;;;;;;;5015709;28;20033;-60
2021/05/17 04:35:58;;;;;;;44.80;26.58;;;;;;;;;;5015298;28;20053;-58
2021/05/17 04:38:26;;;;;;;42.60;26.02;;;;;;;;;;5015521;28;20097;-60
2021/05/17 04:40:53;;;;;;;42.08;26.63;;;;;;;;;;5015512;28;20029;-59
2021/05/17 04:43:20;;;;;;;42.13;24.20;;;;;;;;;;5014848;28;20042;-60
2021/05/17 04:45:47;;;;;;;41.58;24.70;;;;;;;;;;5015715;28;20056;-60
2021/05/17 04:48:14;;;;;;;38.15;23.20;;;;;;;;;;5014790;28;20064;-58
2021/05/17 04:50:41;;;;;;;40.15;23.33;;;;;;;;;;4997748;28;20025;-57
2021/05/17 04:53:08;;;;;;;39.25;23.92;;;;;;;;;;5014730;28;20397;-58
2021/05/17 04:55:35;;;;;;;37.50;23.20;;;;;;;;;;5015158;28;20030;-56
2021/05/17 04:58:03;;;;;;;36.20;22.85;;;;;;;;;;5014648;28;20026;-59
2021/05/17 05:00:30;;;;;;;37.60;23.00;;;;;;;;;;4997375;28;20107;-60
2021/05/17 05:02:57;;;;;;;40.65;23.70;;;;;;;;;;5014322;28;20029;-58
2021/05/17 05:05:25;;;;;;;37.65;23.00;;;;;;;;;;5015166;28;20037;-59
2021/05/17 05:07:52;;;;;;;36.10;22.17;;;;;;;;;;5014558;28;20022;-59
2021/05/17 05:10:19;;;;;;;36.92;21.90;;;;;;;;;;5014816;28;20555;-60
2021/05/17 05:12:46;;;;;;;33.17;21.70;;;;;;;;;;5014390;28;20037;-60
2021/05/17 05:15:13;;;;;;;33.53;21.23;;;;;;;;;;5014959;28;20548;-60
2021/05/17 05:17:40;;;;;;;32.17;20.58;;;;;;;;;;5014560;28;20536;-58
2021/05/17 05:20:07;;;;;;;34.05;20.73;;;;;;;;;;5014625;28;20030;-59
2021/05/17 05:22:35;;;;;;;32.33;20.67;;;;;;;;;;5014561;28;20532;-59
2021/05/17 05:25:02;;;;;;;30.35;20.02;;;;;;;;;;5014125;28;20046;-60
2021/05/17 05:27:41;;;;;;;32.05;19.70;;;;;;;;;;4997085;28;20425;-59
2021/05/17 05:30:16;;;;;;;29.85;19.95;;;;;;;;;;5014039;28;20532;-61
2021/05/17 05:35:28;;;;;;;29.40;19.95;;;;;;;;;;5013977;28;20044;-58
2021/05/17 05:37:55;;;;;;;30.95;18.85;;;;;;;;;;5013810;28;20056;-60
2021/05/17 05:40:23;;;;;;;31.58;19.58;;;;;;;;;;5013913;28;20076;-60
2021/05/17 05:42:50;;;;;;;31.90;19.33;;;;;;;;;;5014357;28;20032;-59
2021/05/17 05:45:17;;;;;;;29.52;18.30;;;;;;;;;;5013906;28;20053;-60
2021/05/17 05:47:44;;;;;;;28.00;17.75;;;;;;;;;;5014350;28;20053;-58
2021/05/17 05:50:12;;;;;;;27.20;18.52;;;;;;;;;;5013566;28;20033;-60
2021/05/17 05:52:39;;;;;;;26.40;17.65;;;;;;;;;;5014351;28;20018;-59
2021/05/17 05:55:06;;;;;;;27.33;17.75;;;;;;;;;;5013649;28;20367;-59
2021/05/17 05:57:40;;;;;;;25.40;16.95;;;;;;;;;;5014187;28;20022;-60
2021/05/17 06:00:08;;;;;;;24.77;16.65;;;;;;;;;;5013413;28;20030;-59
2021/05/17 06:02:36;;;;;;;29.17;16.23;;;;;;;;;;5013925;28;20397;-57
2021/05/17 06:05:04;;;;;;;23.92;15.85;;;;;;;;;;5013145;28;20058;-58
2021/05/17 06:07:31;;;;;;;24.27;15.88;;;;;;;;;;5035495;28;20021;-56
2021/05/17 06:09:58;;;;;;;22.23;14.43;;;;;;;;;;5033419;28;20026;-59
2021/05/17 06:12:26;;;;;;;25.13;15.52;;;;;;;;;;5033416;28;20468;-58
2021/05/17 06:14:59;;;;;;;22.42;14.57;;;;;;;;;;5031164;28;20009;-59
2021/05/17 06:17:26;;;;;;;24.30;15.93;;;;;;;;;;5033196;28;20477;-60
2021/05/17 06:19:53;;;;;;;21.33;14.00;;;;;;;;;;5033058;28;20112;-59
2021/05/17 06:22:28;;;;;;;22.95;15.00;;;;;;;;;;5032772;28;20017;-59
2021/05/17 06:24:57;;;;;;;21.90;14.60;;;;;;;;;;5032594;28;20075;-59
2021/05/17 06:27:25;;;;;;;21.88;14.70;;;;;;;;;;5031236;28;20111;-59
2021/05/17 06:29:54;;;;;;;23.80;13.93;;;;;;;;;;5032917;28;20041;-60
2021/05/17 06:32:22;;;;;;;24.02;14.90;;;;;;;;;;5032677;28;20397;-60
2021/05/17 06:34:50;;;;;;;21.83;13.75;;;;;;;;;;5033220;28;20033;-60
2021/05/17 06:37:17;;;;;;;21.17;14.15;;;;;;;;;;5031276;28;20072;-58
2021/05/17 06:39:44;;;;;;;22.33;14.05;;;;;;;;;;5031780;28;20049;-59
2021/05/17 06:42:12;;;;;;;22.05;14.52;;;;;;;;;;5032201;28;20026;-58
2021/05/17 06:44:39;;;;;;;22.80;13.77;;;;;;;;;;5031054;28;20033;-57
2021/05/17 06:47:09;;;;;;;22.45;13.45;;;;;;;;;;5022897;28;20033;-58
2021/05/17 06:49:37;;;;;;;19.65;13.13;;;;;;;;;;5015998;28;20013;-57
2021/05/17 06:52:04;;;;;;;20.45;12.95;;;;;;;;;;5014583;28;20445;-60
2021/05/17 06:54:31;;;;;;;22.15;13.48;;;;;;;;;;5032717;28;20100;-59
2021/05/17 06:57:08;;;;;;;17.48;12.00;;;;;;;;;;5032277;28;20017;-57
2021/05/17 06:59:47;;;;;;;18.58;12.23;;;;;;;;;;5032594;28;20491;-58
2021/05/17 07:02:21;;;;;;;20.63;12.93;;;;;;;;;;5032084;28;20025;-58
2021/05/17 07:04:48;;;;;;;17.75;12.43;;;;;;;;;;5032308;28;20053;-58
2021/05/17 07:07:21;;;;;;;18.40;11.80;;;;;;;;;;5032489;28;20025;-59
2021/05/17 07:12:34;;;;;;;17.83;11.45;;;;;;;;;;5032402;28;20095;-58
2021/05/17 07:15:05;;;;;;;19.08;12.43;;;;;;;;;;5032325;28;20036;-59
2021/05/17 07:17:32;;;;;;;16.42;10.68;;;;;;;;;;5032550;28;20028;-58
2021/05/17 07:19:59;;;;;;;16.73;11.68;;;;;;;;;;5031875;28;20041;-59
2021/05/17 07:25:12;;;;;;;17.35;10.88;;;;;;;;;;5031856;28;20091;-59
2021/05/17 07:27:39;;;;;;;16.30;10.80;;;;;;;;;;5032268;28;20021;-59
2021/05/17 07:30:06;;;;;;;15.80;11.43;;;;;;;;;;5031805;28;20021;-59
2021/05/17 07:32:33;;;;;;;16.70;11.00;;;;;;;;;;5032155;28;20045;-59
2021/05/17 07:35:01;;;;;;;15.73;10.35;;;;;;;;;;5031538;28;20072;-59
2021/05/17 07:37:28;;;;;;;15.95;10.10;;;;;;;;;;5032031;28;20037;-60
2021/05/17 07:39:55;;;;;;;13.88;9.70;;;;;;;;;;5031690;28;20052;-59
2021/05/17 07:42:23;;;;;;;16.10;9.70;;;;;;;;;;5031794;28;20025;-60
2021/05/17 07:44:50;;;;;;;15.20;9.55;;;;;;;;;;5013804;28;20029;-59
2021/05/17 07:47:17;;;;;;;16.55;9.95;;;;;;;;;;5032093;28;20084;-60
2021/05/17 07:49:52;;;;;;;13.98;10.02;;;;;;;;;;5031443;28;20040;-59
2021/05/17 07:52:19;;;;;;;20.90;9.82;;;;;;;;;;5031564;28;20052;-60
2021/05/17 07:54:47;;;;;;;14.43;9.40;;;;;;;;;;5031333;28;20033;-58
2021/05/17 07:57:14;;;;;;;15.35;9.55;;;;;;;;;;5031877;28;20017;-59
2021/05/17 07:59:41;;;;;;;14.55;8.98;;;;;;;;;;5031008;28;20029;-60
2021/05/17 08:02:09;;;;;;;13.57;8.73;;;;;;;;;;5031557;28;20477;-60
2021/05/17 08:04:36;;;;;;;12.98;8.20;;;;;;;;;;5031202;28;20046;-58
2021/05/17 08:07:03;;;;;;;13.32;8.85;;;;;;;;;;5031387;28;20024;-60
2021/05/17 08:09:30;;;;;;;12.18;7.97;;;;;;;;;;5031738;28;20024;-57
2021/05/17 08:11:57;;;;;;;13.55;9.35;;;;;;;;;;5031169;28;20031;-59
2021/05/17 08:14:24;;;;;;;15.32;8.80;;;;;;;;;;5031708;28;20021;-59
2021/05/17 08:16:51;;;;;;;13.98;9.18;;;;;;;;;;5031184;28;20032;-59
2021/05/17 08:19:18;;;;;;;12.80;8.15;;;;;;;;;;5031541;28;20025;-59
2021/05/17 08:21:45;;;;;;;13.57;8.68;;;;;;;;;;5030906;28;20030;-59
2021/05/17 08:24:12;;;;;;;12.40;7.90;;;;;;;;;;5031358;28;20075;-58
2021/05/17 08:26:41;;;;;;;14.13;8.45;;;;;;;;;;5031275;28;20492;-58
2021/05/17 08:29:08;;;;;;;11.60;7.88;;;;;;;;;;5031341;28;20087;-58
2021/05/17 08:31:36;;;;;;;12.20;8.10;;;;;;;;;;5031065;28;20442;-58
2021/05/17 08:34:03;;;;;;;10.23;7.60;;;;;;;;;;5031103;28;20061;-58
2021/05/17 08:36:30;;;;;;;10.75;7.65;;;;;;;;;;5030975;28;20123;-59
2021/05/17 08:38:57;;;;;;;11.43;7.50;;;;;;;;;;5031473;28;20111;-59
2021/05/17 08:41:24;;;;;;;13.55;7.70;;;;;;;;;;5031181;28;20053;-58
2021/05/17 08:43:51;;;;;;;11.85;7.20;;;;;;;;;;5031014;28;20029;-58
2021/05/17 08:46:18;;;;;;;11.70;7.13;;;;;;;;;;5031426;28;20076;-59
2021/05/17 08:48:47;;;;;;;9.68;7.18;;;;;;;;;;5030815;28;20101;-59
2021/05/17 08:51:18;;;;;;;10.77;6.32;;;;;;;;;;5031268;28;20436;-60
2021/05/17 08:53:48;;;;;;;10.93;7.53;;;;;;;;;;5030470;28;20400;-60
2021/05/17 08:56:15;;;;;;;9.75;6.60;;;;;;;;;;5031419;28;20469;-59
2021/05/17 08:58:42;;;;;;;9.55;6.68;;;;;;;;;;5031123;28;20033;-59
2021/05/17 09:01:09;;;;;;;9.77;6.50;;;;;;;;;;5031052;28;20021;-60
2021/05/17 09:03:36;;;;;;;8.82;6.43;;;;;;;;;;5030157;28;20053;-59
2021/05/17 09:06:07;;;;;;;9.23;6.15;;;;;;;;;;5031358;28;20033;-60
2021/05/17 09:08:41;;;;;;;9.57;6.47;;;;;;;;;;5030757;28;20025;-60
2021/05/17 09:11:08;;;;;;;10.98;6.35;;;;;;;;;;5031210;28;20017;-60
2021/05/17 09:13:36;;;;;;;10.73;6.30;;;;;;;;;;5033710;28;20025;-59
2021/05/17 09:16:03;;;;;;;8.65;5.97;;;;;;;;;;5034843;28;20023;-59
2021/05/17 09:18:31;;;;;;;9.95;6.00;;;;;;;;;;5034132;28;20156;-59
2021/05/17 09:20:59;;;;;;;8.43;5.82;;;;;;;;;;5034483;28;20101;-59
2021/05/17 09:23:28;;;;;;;8.30;5.72;;;;;;;;;;5033967;28;20045;-59
2021/05/17 09:26:02;;;;;;;9.63;6.47;;;;;;;;;;5034726;28;20025;-59
2021/05/17 09:28:34;;;;;;;8.45;5.75;;;;;;;;;;5034296;28;20026;-60
2021/05/17 09:31:04;;;;;;;9.60;5.80;;;;;;;;;;5016740;28;20040;-59
2021/05/17 09:33:38;;;;;;;9.75;6.03;;;;;;;;;;5034357;28;20396;-60
2021/05/17 09:36:06;;;;;;;8.63;5.78;;;;;;;;;;5034111;28;20022;-60
2021/05/17 09:38:34;;;;;;;7.95;5.50;;;;;;;;;;5034375;28;20124;-60
2021/05/17 09:41:03;;;;;;;9.98;6.10;;;;;;;;;;5033873;28;20027;-59
2021/05/17 09:43:30;;;;;;;7.07;4.78;;;;;;;;;;5034049;28;20489;-59
2021/05/17 09:45:57;;;;;;;7.38;5.30;;;;;;;;;;5033662;28;20029;-60
2021/05/17 09:48:26;;;;;;;8.85;5.35;;;;;;;;;;5034208;28;20017;-58
2021/05/17 09:51:02;;;;;;;7.18;5.57;;;;;;;;;;5033675;28;20582;-59
2021/05/17 09:53:30;;;;;;;9.38;5.22;;;;;;;;;;5033893;28;20029;-59
2021/05/17 09:55:58;;;;;;;6.93;5.00;;;;;;;;;;5033412;28;20108;-59
2021/05/17 09:58:29;;;;;;;8.40;5.47;;;;;;;;;;5034122;28;20407;-59
2021/05/17 10:01:15;;;;;;;8.45;5.38;;;;;;;;;;5033560;28;20026;-60
2021/05/17 10:03:44;;;;;;;6.28;4.82;;;;;;;;;;5033349;28;20103;-59
2021/05/17 10:06:13;;;;;;;8.25;5.03;;;;;;;;;;5033247;28;20485;-60
2021/05/17 10:08:40;;;;;;;7.70;4.70;;;;;;;;;;5033632;28;20026;-59
2021/05/17 10:11:07;;;;;;;6.53;4.75;;;;;;;;;;5033296;28;20021;-59
2021/05/17 10:13:35;;;;;;;6.57;4.40;;;;;;;;;;5033342;28;20021;-60
2021/05/17 10:16:04;;;;;;;6.15;4.75;;;;;;;;;;5033176;28;20099;-58
2021/05/17 10:18:31;;;;;;;7.22;4.82;;;;;;;;;;5033787;28;20026;-57
2021/05/17 10:20:59;;;;;;;7.28;4.43;;;;;;;;;;5032918;28;20105;-57
2021/05/17 10:23:26;;;;;;;7.60;4.60;;;;;;;;;;5032823;28;20030;-57
2021/05/17 10:25:54;;;;;;;7.20;4.45;;;;;;;;;;5033488;28;20025;-59
2021/05/17 10:28:24;;;;;;;8.35;4.90;;;;;;;;;;5032883;28;20026;-59
2021/05/17 10:30:52;;;;;;;6.13;4.43;;;;;;;;;;5033243;28;20021;-58
2021/05/17 10:33:27;;;;;;;5.65;4.32;;;;;;;;;;5032723;28;20036;-60
2021/05/17 10:35:54;;;;;;;6.82;4.20;;;;;;;;;;5033123;28;20018;-59
2021/05/17 10:44:02;;;;;;;6.10;4.03;;;;;;;;;;5032442;28;20520;-59
2021/05/17 10:46:37;;;;;;;6.45;4.15;;;;;;;;;;5032936;28;20164;-59
2021/05/17 10:49:23;;;;;;;5.38;3.70;;;;;;;;;;5032347;28;20030;-57
2021/05/17 10:51:51;;;;;;;5.35;3.80;;;;;;;;;;5032995;28;20478;-58
2021/05/17 10:54:44;;;;;;;6.15;4.05;;;;;;;;;;5032363;28;20363;-60
2021/05/17 10:57:27;;;;;;;6.22;4.07;;;;;;;;;;5029457;28;20037;-59
2021/05/17 11:02:42;;;;;;;6.15;3.90;;;;;;;;;;5032414;28;20093;-59
2021/05/17 11:05:12;;;;;;;7.05;3.60;;;;;;;;;;5032240;28;20060;-60
2021/05/17 11:08:02;;;;;;;5.63;3.90;;;;;;;;;;5032535;28;20048;-59
2021/05/17 11:10:42;;;;;;;4.78;3.65;;;;;;;;;;5032755;28;20025;-60
2021/05/17 11:13:11;;;;;;;7.70;3.80;;;;;;;;;;5031907;28;20128;-60
2021/05/17 11:15:44;;;;;;;4.63;3.38;;;;;;;;;;5031730;28;20083;-58
2021/05/17 11:18:12;;;;;;;5.78;4.10;;;;;;;;;;5032135;28;20018;-57
2021/05/17 11:20:48;;;;;;;5.45;3.67;;;;;;;;;;5032336;28;20036;-58
2021/05/17 11:23:19;;;;;;;5.55;3.83;;;;;;;;;;5032058;28;20038;-60
2021/05/17 11:28:38;;;;;;;12.57;4.03;;;;;;;;;;5022847;28;20265;-57
2021/05/17 11:31:19;;;;;;;6.53;3.40;;;;;;;;;;5017935;28;20056;-53
2021/05/17 11:33:55;;;;;;;4.82;3.00;;;;;;;;;;5031743;28;20074;-60
2021/05/17 11:36:23;;;;;;;5.38;3.28;;;;;;;;;;5022631;28;20037;-58
2021/05/17 11:39:14;;;;;;;4.95;3.33;;;;;;;;;;5012160;28;20025;-59
2021/05/17 11:41:44;;;;;;;5.00;3.35;;;;;;;;;;5010333;28;20025;-60
2021/05/17 11:44:12;;;;;;;5.25;3.25;;;;;;;;;;5012142;28;20030;-59
2021/05/17 11:46:41;;;;;;;7.45;3.30;;;;;;;;;;5019865;28;20025;-58
2021/05/17 11:49:11;;;;;;;5.93;3.70;;;;;;;;;;5031692;28;20041;-58
2021/05/17 11:51:39;;;;;;;5.20;3.08;;;;;;;;;;5025642;28;20105;-56
2021/05/17 11:54:06;;;;;;;3.95;2.90;;;;;;;;;;4993237;28;20104;-60
2021/05/17 11:56:53;;;;;;;4.90;3.22;;;;;;;;;;5011222;28;20125;-59
2021/05/17 11:59:22;;;;;;;5.55;3.15;;;;;;;;;;5012217;28;20069;-59
2021/05/17 12:01:51;;;;;;;6.85;3.50;;;;;;;;;;5016857;28;20096;-58
2021/05/17 12:04:22;;;;;;;14.07;3.77;;;;;;;;;;5028885;28;20114;-58
2021/05/17 12:06:58;;;;;;;6.95;3.38;;;;;;;;;;5030267;28;20083;-59
2021/05/17 12:09:26;;;;;;;3.95;2.92;;;;;;;;;;5030743;28;20358;-59
2021/05/17 12:11:54;;;;;;;5.25;3.03;;;;;;;;;;5030929;28;20359;-59
2021/05/17 12:14:21;;;;;;;8.05;3.13;;;;;;;;;;5031303;28;20389;-59
2021/05/17 12:17:08;;;;;;;5.78;2.63;;;;;;;;;;5028760;28;20021;-58
2021/05/17 12:19:36;;;;;;;5.57;3.10;;;;;;;;;;5031431;28;20029;-57
2021/05/17 12:22:12;;;;;;;4.80;2.58;;;;;;;;;;5030655;28;20029;-56
2021/05/17 12:24:39;;;;;;;5.45;2.90;;;;;;;;;;5030522;28;20069;-58
2021/05/17 12:27:17;;;;;;;5.32;2.55;;;;;;;;;;5023923;28;20168;-59
2021/05/17 12:29:52;;;;;;;5.35;2.72;;;;;;;;;;5019010;28;20065;-59
2021/05/17 12:32:21;;;;;;;7.72;2.65;;;;;;;;;;5020185;28;20029;-59
2021/05/17 12:34:55;;;;;;;4.75;2.67;;;;;;;;;;5031347;28;20025;-58
2021/05/17 12:37:23;;;;;;;7.57;2.85;;;;;;;;;;5030149;28;20017;-59
2021/05/17 12:40:09;;;;;;;8.38;2.45;;;;;;;;;;5029299;28;20834;-59
2021/05/17 12:42:36;;;;;;;7.22;2.50;;;;;;;;;;5030215;28;20378;-58
2021/05/17 12:45:07;;;;;;;5.10;2.55;;;;;;;;;;5028079;28;20029;-56
2021/05/17 12:47:38;;;;;;;5.37;2.60;;;;;;;;;;5033450;28;20030;-55
2021/05/17 12:50:06;;;;;;;7.13;2.40;;;;;;;;;;5016749;28;20269;-59
2021/05/17 12:52:37;;;;;;;11.75;2.67;;;;;;;;;;5032093;28;20033;-58
2021/05/17 12:55:10;;;;;;;7.28;2.42;;;;;;;;;;5035030;28;20541;-59
2021/05/17 12:57:47;;;;;;;5.25;2.50;;;;;;;;;;5016534;28;20033;-59
2021/05/17 13:00:15;;;;;;;9.27;3.00;;;;;;;;;;5034220;28;20492;-58
2021/05/17 13:02:42;;;;;;;7.97;2.50;;;;;;;;;;5015805;28;20076;-59
2021/05/17 13:05:09;;;;;;;9.30;2.38;;;;;;;;;;5032643;28;20053;-56
2021/05/17 13:07:56;;;;;;;7.63;2.42;;;;;;;;;;5034366;28;20026;-55
2021/05/17 13:10:23;;;;;;;7.25;2.33;;;;;;;;;;5034002;28;20504;-59
2021/05/17 13:12:51;;;;;;;7.85;2.53;;;;;;;;;;5034377;28;20054;-59
2021/05/17 13:15:24;;;;;;;5.78;2.25;;;;;;;;;;5033074;28;20029;-59
2021/05/17 13:18:07;;;;;;;5.25;2.22;;;;;;;;;;5033293;28;20025;-58
2021/05/17 13:20:34;;;;;;;6.57;2.17;;;;;;;;;;5033554;28;20116;-59
2021/05/17 13:31:49;;;;;;;14.52;3.05;;;;;;;;;;5033062;28;20052;-57
2021/05/17 13:34:16;;;;;;;9.50;2.17;;;;;;;;;;5030510;28;20020;-55
2021/05/17 13:36:43;;;;;;;5.18;2.15;;;;;;;;;;5033796;28;20442;-58
2021/05/17 13:39:10;;;;;;;9.07;2.33;;;;;;;;;;5017263;28;20492;-58
2021/05/17 13:41:38;;;;;;;9.00;2.55;;;;;;;;;;5032191;28;20104;-59
2021/05/17 13:44:05;;;;;;;7.20;2.05;;;;;;;;;;5033414;28;20392;-52
2021/05/17 13:46:32;;;;;;;8.27;2.40;;;;;;;;;;5033217;28;20026;-56
2021/05/17 13:48:59;;;;;;;9.65;2.40;;;;;;;;;;5032354;28;20075;-59
2021/05/17 13:51:28;;;;;;;10.75;2.30;;;;;;;;;;5031727;28;20540;-58
2021/05/17 13:53:57;;;;;;;6.38;1.88;;;;;;;;;;5033177;28;20030;-59
2021/05/17 13:56:25;;;;;;;7.10;2.08;;;;;;;;;;5033191;28;20017;-60
2021/05/17 13:58:52;;;;;;;6.63;1.92;;;;;;;;;;5032061;28;20028;-50
2021/05/17 14:01:20;;;;;;;5.45;1.80;;;;;;;;;;5032571;28;20059;-54
2021/05/17 14:03:47;;;;;;;24.40;2.00;;;;;;;;;;5031101;28;20084;-53
2021/05/17 14:06:14;;;;;;;3.00;1.58;;;;;;;;;;5032828;28;20112;-55
2021/05/17 14:08:41;;;;;;;10.68;2.72;;;;;;;;;;5033287;28;20057;-57
2021/05/17 14:11:08;;;;;;;9.10;2.20;;;;;;;;;;5031884;28;20026;-57
2021/05/17 14:13:36;;;;;;;5.05;1.95;;;;;;;;;;5032988;28;20025;-59
2021/05/17 14:16:03;;;;;;;4.35;1.67;;;;;;;;;;5031091;28;20041;-59
2021/05/17 14:18:30;;;;;;;6.15;1.70;;;;;;;;;;5032237;28;20112;-59
2021/05/17 14:20:57;;;;;;;7.40;1.60;;;;;;;;;;5033284;28;20021;-59
2021/05/17 14:23:24;;;;;;;11.27;1.80;;;;;;;;;;5032872;28;20564;-59
2021/05/17 14:25:51;;;;;;;9.38;1.88;;;;;;;;;;5033544;28;20029;-60
2021/05/17 14:28:18;;;;;;;8.38;1.88;;;;;;;;;;5012003;28;20028;-63
2021/05/17 14:30:45;;;;;;;11.82;1.60;;;;;;;;;;5033041;28;20096;-60
2021/05/17 14:33:12;;;;;;;9.18;1.40;;;;;;;;;;5032004;28;20021;-59
2021/05/17 14:35:40;;;;;;;13.05;1.52;;;;;;;;;;5032618;28;20013;-59
2021/05/17 14:38:07;;;;;;;8.80;1.10;;;;;;;;;;5032076;28;20036;-60
2021/05/17 14:40:34;;;;;;;5.40;1.45;;;;;;;;;;5029623;28;20052;-58
2021/05/17 14:43:01;;;;;;;8.55;1.30;;;;;;;;;;5032770;28;20040;-59
2021/05/17 14:45:29;;;;;;;8.77;1.30;;;;;;;;;;5032347;28;20025;-58
2021/05/17 14:47:56;;;;;;;4.57;0.90;;;;;;;;;;5031676;28;20599;-53
2021/05/17 14:50:24;;;;;;;9.40;1.33;;;;;;;;;;5031327;28;20040;-57
2021/05/17 14:52:51;;;;;;;15.02;1.95;;;;;;;;;;5030977;28;20026;-59
2021/05/17 14:55:18;;;;;;;8.40;1.63;;;;;;;;;;5032311;28;20013;-59
2021/05/17 14:57:45;;;;;;;8.02;1.20;;;;;;;;;;5032963;28;20029;-59
2021/05/17 15:00:17;;;;;;;8.05;1.65;;;;;;;;;;5032078;28;20033;-59
2021/05/17 15:02:44;;;;;;;8.18;1.20;;;;;;;;;;5026331;28;20033;-55
2021/05/17 15:05:13;;;;;;;21.52;1.55;;;;;;;;;;5023416;28;20092;-60
2021/05/17 15:07:40;;;;;;;7.50;1.15;;;;;;;;;;5028356;28;20033;-58
2021/05/17 15:10:08;;;;;;;12.20;1.50;;;;;;;;;;5030579;28;20030;-61
2021/05/17 15:12:36;;;;;;;14.00;1.52;;;;;;;;;;5031354;28;20088;-61